Time;durP1;ratioP1;P1;durP2;ratioP2;P2;SDS_P1;SDS_P2;PMS_P1;PMS_P2;Temp;Humidity;BMP_temperature;BMP_pressure;BME280_temperature;BME280_humidity;BME280_pressure;Samples;Min_cycle;Max_cycle;Signal;HPM_P1;HPM_P2
2023/11/30 00:00:56;;;;;;;33.27;11.60;;;;;;;;;;5037270;28;20151;-70
2023/11/30 00:03:22;;;;;;;32.83;12.33;;;;;;;;;;5039847;28;20079;-72
2023/11/30 00:05:47;;;;;;;31.07;12.60;;;;;;;;;;5038423;28;20029;-70
2023/11/30 00:08:12;;;;;;;37.00;13.77;;;;;;;;;;5037308;28;20454;-71
2023/11/30 00:10:37;;;;;;;40.20;12.77;;;;;;;;;;5036523;28;20091;-71
2023/11/30 00:13:03;;;;;;;37.00;12.60;;;;;;;;;;5040781;28;20024;-71
2023/11/30 00:15:29;;;;;;;36.63;12.27;;;;;;;;;;5042713;28;20052;-72
2023/11/30 00:17:54;;;;;;;36.33;12.40;;;;;;;;;;5056179;28;20283;-70
2023/11/30 00:20:19;;;;;;;37.50;11.53;;;;;;;;;;5037993;28;20492;-71
2023/11/30 00:22:46;;;;;;;42.63;12.77;;;;;;;;;;5039065;28;20029;-70
2023/11/30 00:25:11;;;;;;;42.40;12.93;;;;;;;;;;5041328;28;20014;-70
2023/11/30 00:27:36;;;;;;;51.77;13.57;;;;;;;;;;5040072;28;20942;-70
2023/11/30 00:30:02;;;;;;;41.77;13.17;;;;;;;;;;5044411;28;20369;-71
2023/11/30 00:32:27;;;;;;;41.33;12.70;;;;;;;;;;5034298;28;20343;-71
2023/11/30 00:34:52;;;;;;;42.33;12.93;;;;;;;;;;5037215;28;20017;-70
2023/11/30 00:37:17;;;;;;;44.50;13.57;;;;;;;;;;5041769;28;20397;-70
2023/11/30 00:39:42;;;;;;;40.77;13.13;;;;;;;;;;5032417;28;20491;-70
2023/11/30 00:42:08;;;;;;;40.03;12.57;;;;;;;;;;5040278;28;20025;-71
2023/11/30 00:44:33;;;;;;;38.37;13.07;;;;;;;;;;5034594;28;20025;-66
2023/11/30 00:46:58;;;;;;;42.50;13.27;;;;;;;;;;5038837;28;20057;-66
2023/11/30 00:49:23;;;;;;;44.63;13.90;;;;;;;;;;5036525;28;20488;-67
2023/11/30 00:51:49;;;;;;;44.97;14.27;;;;;;;;;;5032305;28;20440;-68
2023/11/30 00:54:14;;;;;;;63.67;14.10;;;;;;;;;;5038253;28;20664;-66
2023/11/30 00:56:39;;;;;;;55.77;14.27;;;;;;;;;;5032613;28;20029;-66
2023/11/30 00:59:04;;;;;;;79.87;17.10;;;;;;;;;;5037722;28;20013;-66
2023/11/30 01:01:30;;;;;;;84.43;17.37;;;;;;;;;;5040868;28;20033;-66
2023/11/30 01:03:55;;;;;;;92.00;17.87;;;;;;;;;;5035845;28;20124;-65
2023/11/30 01:06:20;;;;;;;100.80;18.80;;;;;;;;;;5037982;28;20037;-66
2023/11/30 01:08:46;;;;;;;136.70;17.40;;;;;;;;;;5039902;28;20381;-66
2023/11/30 01:11:11;;;;;;;143.83;19.03;;;;;;;;;;5038983;28;20055;-65
2023/11/30 01:13:36;;;;;;;145.70;17.87;;;;;;;;;;5042810;28;20048;-74
2023/11/30 01:16:02;;;;;;;172.17;18.67;;;;;;;;;;5036674;28;20394;-70
2023/11/30 01:18:27;;;;;;;185.10;19.73;;;;;;;;;;5037469;28;20100;-73
2023/11/30 01:20:52;;;;;;;172.07;19.17;;;;;;;;;;5040903;28;20024;-71
2023/11/30 01:23:17;;;;;;;221.77;19.23;;;;;;;;;;5042047;28;20579;-73
2023/11/30 01:25:43;;;;;;;172.13;17.63;;;;;;;;;;5038748;28;20027;-73
2023/11/30 01:28:08;;;;;;;262.93;21.03;;;;;;;;;;5038848;28;20036;-72
2023/11/30 01:30:33;;;;;;;272.97;21.80;;;;;;;;;;5030869;28;20021;-73
2023/11/30 01:32:58;;;;;;;249.10;21.67;;;;;;;;;;5039508;28;20018;-69
2023/11/30 01:35:28;;;;;;;247.13;21.00;;;;;;;;;;5032948;28;20037;-72
2023/11/30 01:37:54;;;;;;;260.30;19.63;;;;;;;;;;5037567;28;20477;-72
2023/11/30 01:40:19;;;;;;;281.77;19.90;;;;;;;;;;5037980;28;20060;-71
2023/11/30 01:42:44;;;;;;;243.43;19.30;;;;;;;;;;5035873;28;20031;-70
2023/11/30 01:45:09;;;;;;;248.47;20.17;;;;;;;;;;5039822;28;20047;-69
2023/11/30 01:47:35;;;;;;;274.13;20.60;;;;;;;;;;5030218;28;20030;-72
2023/11/30 01:50:01;;;;;;;238.53;18.07;;;;;;;;;;5033317;28;20021;-70
2023/11/30 01:52:28;;;;;;;289.77;19.57;;;;;;;;;;5035920;28;20521;-73
2023/11/30 01:54:53;;;;;;;243.90;18.47;;;;;;;;;;5033859;28;20124;-73
2023/11/30 01:57:19;;;;;;;238.80;18.30;;;;;;;;;;5036951;28;20040;-73
2023/11/30 01:59:44;;;;;;;168.87;16.10;;;;;;;;;;5032030;28;20021;-73
2023/11/30 02:02:09;;;;;;;251.47;18.00;;;;;;;;;;5032455;28;20028;-73
2023/11/30 02:04:35;;;;;;;201.83;17.90;;;;;;;;;;5036882;28;20033;-70
2023/11/30 02:07:00;;;;;;;216.97;15.83;;;;;;;;;;5033278;28;20237;-72
2023/11/30 02:09:26;;;;;;;292.30;19.33;;;;;;;;;;5037259;28;20108;-69
2023/11/30 02:11:51;;;;;;;256.47;17.13;;;;;;;;;;5040163;28;20457;-73
2023/11/30 02:14:17;;;;;;;220.90;16.80;;;;;;;;;;5033106;28;20297;-73
2023/11/30 02:16:42;;;;;;;258.47;17.57;;;;;;;;;;5038473;28;20012;-73
2023/11/30 02:19:07;;;;;;;167.80;16.63;;;;;;;;;;5038832;28;20056;-72
2023/11/30 02:21:32;;;;;;;261.50;17.90;;;;;;;;;;5038357;28;20029;-74
2023/11/30 02:23:57;;;;;;;257.90;16.53;;;;;;;;;;5037421;28;20021;-72
2023/11/30 02:26:23;;;;;;;260.10;17.50;;;;;;;;;;5036897;28;20715;-72
2023/11/30 02:28:48;;;;;;;254.20;17.63;;;;;;;;;;5036147;28;20037;-73
2023/11/30 02:31:13;;;;;;;295.50;18.47;;;;;;;;;;5034030;28;20037;-73
2023/11/30 02:33:39;;;;;;;258.57;18.63;;;;;;;;;;5035435;28;20017;-71
2023/11/30 02:36:04;;;;;;;230.57;17.30;;;;;;;;;;5037696;28;20025;-74
2023/11/30 02:38:30;;;;;;;365.20;20.63;;;;;;;;;;5033919;28;20028;-70
2023/11/30 02:40:55;;;;;;;316.40;21.67;;;;;;;;;;5032589;28;20025;-73
2023/11/30 02:43:20;;;;;;;378.97;21.53;;;;;;;;;;5035736;28;20025;-73
2023/11/30 02:45:45;;;;;;;397.53;23.50;;;;;;;;;;5027955;28;20120;-70
2023/11/30 02:48:11;;;;;;;410.37;25.93;;;;;;;;;;5040555;28;20373;-69
2023/11/30 02:50:36;;;;;;;334.10;22.63;;;;;;;;;;5031773;28;20063;-70
2023/11/30 02:53:01;;;;;;;392.93;25.67;;;;;;;;;;5034647;28;20036;-70
2023/11/30 02:55:26;;;;;;;351.77;24.53;;;;;;;;;;5034527;28;20576;-69
2023/11/30 02:57:52;;;;;;;344.13;26.20;;;;;;;;;;5032200;28;20047;-71
2023/11/30 03:00:17;;;;;;;328.20;25.70;;;;;;;;;;5038729;28;20421;-69
2023/11/30 03:02:42;;;;;;;336.83;24.93;;;;;;;;;;5033051;28;20044;-68
2023/11/30 03:05:08;;;;;;;347.20;26.53;;;;;;;;;;5040658;28;20013;-63
2023/11/30 03:07:33;;;;;;;394.20;27.40;;;;;;;;;;5038608;28;20024;-64
2023/11/30 03:09:58;;;;;;;296.63;25.43;;;;;;;;;;5039504;28;20364;-63
2023/11/30 03:12:23;;;;;;;415.67;28.30;;;;;;;;;;5045835;28;20107;-63
2023/11/30 03:14:49;;;;;;;344.80;28.93;;;;;;;;;;5040163;28;20014;-65
2023/11/30 03:17:14;;;;;;;345.93;25.93;;;;;;;;;;5040906;28;20120;-63
2023/11/30 03:19:39;;;;;;;377.43;26.13;;;;;;;;;;5035417;28;20373;-65
2023/11/30 03:22:05;;;;;;;510.17;30.27;;;;;;;;;;5040184;28;20114;-65
2023/11/30 03:24:30;;;;;;;506.00;32.50;;;;;;;;;;5041076;28;20029;-63
2023/11/30 03:26:55;;;;;;;424.53;29.40;;;;;;;;;;5039194;28;20033;-63
2023/11/30 03:29:21;;;;;;;323.10;23.37;;;;;;;;;;5041496;28;20031;-64
2023/11/30 03:31:46;;;;;;;387.23;25.97;;;;;;;;;;5038931;28;20013;-63
2023/11/30 03:34:11;;;;;;;430.23;27.93;;;;;;;;;;5040788;28;20468;-64
2023/11/30 03:36:36;;;;;;;422.37;24.53;;;;;;;;;;5039975;28;20030;-65
2023/11/30 03:39:02;;;;;;;476.20;28.23;;;;;;;;;;5040393;28;20016;-63
2023/11/30 03:41:27;;;;;;;652.33;35.33;;;;;;;;;;5037179;28;20027;-64
2023/11/30 03:43:53;;;;;;;383.10;24.77;;;;;;;;;;5041494;28;20512;-64
2023/11/30 03:46:21;;;;;;;469.90;26.93;;;;;;;;;;5040153;28;20531;-67
2023/11/30 03:48:46;;;;;;;344.50;25.13;;;;;;;;;;5034995;28;20425;-65
2023/11/30 03:51:11;;;;;;;277.87;22.40;;;;;;;;;;5041106;28;20074;-67
2023/11/30 03:53:37;;;;;;;296.27;21.40;;;;;;;;;;5035525;28;20019;-64
2023/11/30 03:56:02;;;;;;;234.23;18.93;;;;;;;;;;5032299;28;20045;-63
2023/11/30 03:58:28;;;;;;;246.20;20.93;;;;;;;;;;5034561;28;20237;-64
2023/11/30 04:00:53;;;;;;;320.87;22.30;;;;;;;;;;5041743;28;20033;-63
2023/11/30 04:03:18;;;;;;;251.90;20.57;;;;;;;;;;5043230;28;20025;-62
2023/11/30 04:05:43;;;;;;;201.13;17.67;;;;;;;;;;5029942;28;20028;-64
2023/11/30 04:08:09;;;;;;;281.53;19.70;;;;;;;;;;5035591;28;20097;-65
2023/11/30 04:10:34;;;;;;;303.60;18.90;;;;;;;;;;5037499;28;20397;-64
2023/11/30 04:12:59;;;;;;;379.57;21.27;;;;;;;;;;5036653;28;20039;-64
2023/11/30 04:15:24;;;;;;;340.27;22.13;;;;;;;;;;5039640;28;20626;-64
2023/11/30 04:17:50;;;;;;;275.63;16.60;;;;;;;;;;5035997;28;20017;-63
2023/11/30 04:20:15;;;;;;;384.80;20.30;;;;;;;;;;5040282;28;20096;-64
2023/11/30 04:22:40;;;;;;;309.87;16.93;;;;;;;;;;5043320;28;20670;-66
2023/11/30 04:25:06;;;;;;;460.60;22.43;;;;;;;;;;5039116;28;20447;-65
2023/11/30 04:27:31;;;;;;;295.17;19.83;;;;;;;;;;5038412;28;20015;-66
2023/11/30 04:29:56;;;;;;;311.90;18.93;;;;;;;;;;5038235;28;20064;-67
2023/11/30 04:32:22;;;;;;;208.53;17.83;;;;;;;;;;5042613;28;20071;-66
2023/11/30 04:34:48;;;;;;;314.43;19.67;;;;;;;;;;5043622;28;20460;-65
2023/11/30 04:37:13;;;;;;;340.27;19.67;;;;;;;;;;5040378;28;20021;-67
2023/11/30 04:39:38;;;;;;;314.83;17.97;;;;;;;;;;5037778;28;20052;-64
2023/11/30 04:42:04;;;;;;;240.03;16.17;;;;;;;;;;5040326;28;20025;-67
2023/11/30 04:44:29;;;;;;;204.00;15.47;;;;;;;;;;5039141;28;20370;-66
2023/11/30 04:46:54;;;;;;;290.80;16.87;;;;;;;;;;5036369;28;20466;-65
2023/11/30 04:49:20;;;;;;;137.00;15.30;;;;;;;;;;5038935;28;20031;-66
2023/11/30 04:51:45;;;;;;;249.80;17.63;;;;;;;;;;5042805;28;20045;-67
2023/11/30 04:54:10;;;;;;;300.47;22.00;;;;;;;;;;5039881;28;20109;-67
2023/11/30 04:56:36;;;;;;;257.53;16.33;;;;;;;;;;5041284;28;20251;-67
2023/11/30 04:59:01;;;;;;;275.60;17.00;;;;;;;;;;5038597;28;20402;-67
2023/11/30 05:01:26;;;;;;;435.20;23.57;;;;;;;;;;5038136;28;20120;-66
2023/11/30 05:03:51;;;;;;;333.90;16.47;;;;;;;;;;5032567;28;20485;-66
2023/11/30 05:06:17;;;;;;;380.07;20.50;;;;;;;;;;5039483;28;20488;-66
2023/11/30 05:08:42;;;;;;;290.27;17.17;;;;;;;;;;5030067;28;20091;-64
2023/11/30 05:11:07;;;;;;;271.13;16.20;;;;;;;;;;5041425;28;20036;-65
2023/11/30 05:13:33;;;;;;;191.53;12.87;;;;;;;;;;5036242;28;20066;-63
2023/11/30 05:15:59;;;;;;;392.30;22.33;;;;;;;;;;5032431;28;20025;-64
2023/11/30 05:18:24;;;;;;;173.00;14.47;;;;;;;;;;5037383;28;20119;-63
2023/11/30 05:20:49;;;;;;;222.80;15.37;;;;;;;;;;5036342;28;20465;-62
2023/11/30 05:23:15;;;;;;;338.03;17.20;;;;;;;;;;5038047;28;20041;-72
2023/11/30 05:25:40;;;;;;;106.27;8.47;;;;;;;;;;5035372;28;20272;-75
2023/11/30 05:28:06;;;;;;;257.53;15.87;;;;;;;;;;5037658;28;20461;-70
2023/11/30 05:30:32;;;;;;;164.67;11.33;;;;;;;;;;5041821;28;20055;-70
2023/11/30 05:32:57;;;;;;;336.80;17.33;;;;;;;;;;5041677;28;20032;-63
2023/11/30 05:35:22;;;;;;;341.63;18.53;;;;;;;;;;5037937;28;20048;-64
2023/11/30 05:37:48;;;;;;;375.27;18.33;;;;;;;;;;5038069;28;20027;-64
2023/11/30 05:40:13;;;;;;;345.93;20.03;;;;;;;;;;5038485;28;20075;-64
2023/11/30 05:42:40;;;;;;;86.57;8.43;;;;;;;;;;5042779;28;20017;-66
2023/11/30 05:45:06;;;;;;;348.67;19.77;;;;;;;;;;5035849;28;20025;-64
2023/11/30 05:47:31;;;;;;;373.67;19.70;;;;;;;;;;5039623;28;20052;-65
2023/11/30 05:49:57;;;;;;;287.17;16.07;;;;;;;;;;5036854;28;20485;-64
2023/11/30 05:52:22;;;;;;;258.57;17.03;;;;;;;;;;5036473;28;20045;-63
2023/11/30 05:54:48;;;;;;;114.53;10.47;;;;;;;;;;5035089;28;20083;-65
2023/11/30 05:57:13;;;;;;;98.67;8.90;;;;;;;;;;5033580;28;20025;-65
2023/11/30 05:59:38;;;;;;;235.83;15.77;;;;;;;;;;5035650;28;20017;-63
2023/11/30 06:02:05;;;;;;;307.27;17.60;;;;;;;;;;5041136;28;20025;-63
2023/11/30 06:04:31;;;;;;;305.73;16.97;;;;;;;;;;5034708;28;20032;-63
2023/11/30 06:06:56;;;;;;;248.30;16.80;;;;;;;;;;5035382;28;20029;-64
2023/11/30 06:09:21;;;;;;;323.87;18.23;;;;;;;;;;5038246;28;20078;-65
2023/11/30 06:11:46;;;;;;;256.43;16.97;;;;;;;;;;5036854;28;20044;-65
2023/11/30 06:14:12;;;;;;;271.90;17.07;;;;;;;;;;5035083;28;20768;-64
2023/11/30 06:16:37;;;;;;;232.00;17.60;;;;;;;;;;5036255;28;20451;-65
2023/11/30 06:19:02;;;;;;;174.37;14.00;;;;;;;;;;5034095;28;20075;-63
2023/11/30 06:21:27;;;;;;;76.73;10.30;;;;;;;;;;5034367;28;20048;-65
2023/11/30 06:23:53;;;;;;;149.47;14.20;;;;;;;;;;5030669;28;20025;-64
2023/11/30 06:26:18;;;;;;;127.93;15.20;;;;;;;;;;5037778;28;20016;-66
2023/11/30 06:28:43;;;;;;;169.50;16.77;;;;;;;;;;5039425;28;20563;-63
2023/11/30 06:31:08;;;;;;;131.80;16.00;;;;;;;;;;5035445;28;20029;-63
2023/11/30 06:33:34;;;;;;;156.00;13.67;;;;;;;;;;5035503;28;20068;-71
2023/11/30 06:36:01;;;;;;;147.90;15.10;;;;;;;;;;5034642;28;20120;-68
2023/11/30 06:38:27;;;;;;;124.93;15.17;;;;;;;;;;5040778;28;20025;-70
2023/11/30 06:40:52;;;;;;;119.33;13.90;;;;;;;;;;5038604;28;20035;-69
2023/11/30 06:43:17;;;;;;;95.37;13.23;;;;;;;;;;5037694;28;20116;-69
2023/11/30 06:45:43;;;;;;;91.00;13.87;;;;;;;;;;5037951;28;20017;-68
2023/11/30 06:48:08;;;;;;;101.50;16.17;;;;;;;;;;5038166;28;20080;-70
2023/11/30 06:50:33;;;;;;;87.43;14.13;;;;;;;;;;5033743;28;20108;-69
2023/11/30 06:52:59;;;;;;;111.63;15.57;;;;;;;;;;5037922;28;20048;-68
2023/11/30 06:55:24;;;;;;;100.83;14.30;;;;;;;;;;5033742;28;20022;-70
2023/11/30 06:57:49;;;;;;;106.50;15.83;;;;;;;;;;5036793;28;20094;-70
2023/11/30 07:00:14;;;;;;;119.23;16.20;;;;;;;;;;5039428;28;20036;-67
2023/11/30 07:02:40;;;;;;;116.20;15.97;;;;;;;;;;5038173;28;20041;-69
2023/11/30 07:05:05;;;;;;;107.03;15.90;;;;;;;;;;5037692;28;20060;-70
2023/11/30 07:07:34;;;;;;;148.87;18.27;;;;;;;;;;5035530;28;20025;-70
2023/11/30 07:10:00;;;;;;;108.00;15.30;;;;;;;;;;5038459;28;20458;-67
2023/11/30 07:12:25;;;;;;;105.87;16.67;;;;;;;;;;5035844;28;20329;-68
2023/11/30 07:14:50;;;;;;;88.73;14.97;;;;;;;;;;5036229;28;20025;-69
2023/11/30 07:17:16;;;;;;;106.20;16.10;;;;;;;;;;5037114;28;20024;-70
2023/11/30 07:19:41;;;;;;;76.37;11.23;;;;;;;;;;5034636;28;20017;-69
2023/11/30 07:22:06;;;;;;;106.93;18.67;;;;;;;;;;5037365;28;20044;-69
2023/11/30 07:24:31;;;;;;;103.33;15.80;;;;;;;;;;5035655;28;20247;-70
2023/11/30 07:26:57;;;;;;;116.60;18.50;;;;;;;;;;5037653;28;20032;-68
2023/11/30 07:29:22;;;;;;;106.50;15.83;;;;;;;;;;5035792;28;20086;-69
2023/11/30 07:31:49;;;;;;;81.60;13.97;;;;;;;;;;5031741;28;20509;-69
2023/11/30 07:34:14;;;;;;;95.40;14.53;;;;;;;;;;5029525;28;20614;-70
2023/11/30 07:36:40;;;;;;;106.17;16.63;;;;;;;;;;5038435;28;20021;-70
2023/11/30 07:39:05;;;;;;;98.80;15.93;;;;;;;;;;5034330;28;20389;-69
2023/11/30 07:41:30;;;;;;;92.63;15.20;;;;;;;;;;5034510;28;20025;-68
2023/11/30 07:43:55;;;;;;;85.63;14.10;;;;;;;;;;5035471;28;20037;-69
2023/11/30 07:46:21;;;;;;;98.60;17.50;;;;;;;;;;5040147;28;20495;-70
2023/11/30 07:48:46;;;;;;;90.13;16.13;;;;;;;;;;5040111;28;20032;-68
2023/11/30 07:51:11;;;;;;;99.37;16.33;;;;;;;;;;5038541;28;20042;-70
2023/11/30 07:53:36;;;;;;;118.03;17.10;;;;;;;;;;5034718;28;20032;-68
2023/11/30 07:56:02;;;;;;;112.73;17.80;;;;;;;;;;5037741;28;20112;-68
2023/11/30 07:58:27;;;;;;;117.00;17.40;;;;;;;;;;5038507;28;20020;-68
2023/11/30 08:00:52;;;;;;;98.10;16.20;;;;;;;;;;5040760;28;20025;-70
2023/11/30 08:03:18;;;;;;;121.43;18.10;;;;;;;;;;5035122;28;20608;-70
2023/11/30 08:05:44;;;;;;;101.10;16.87;;;;;;;;;;5038186;28;20036;-71
2023/11/30 08:08:10;;;;;;;120.27;17.30;;;;;;;;;;5035674;28;20025;-71
2023/11/30 08:10:36;;;;;;;108.87;17.43;;;;;;;;;;5038227;28;20451;-71
2023/11/30 08:13:01;;;;;;;96.97;15.97;;;;;;;;;;5040371;28;20052;-70
2023/11/30 08:15:26;;;;;;;104.87;16.53;;;;;;;;;;5038326;28;20449;-70
2023/11/30 08:17:52;;;;;;;89.67;15.97;;;;;;;;;;5035910;28;20389;-69
2023/11/30 08:20:17;;;;;;;97.13;16.73;;;;;;;;;;5033548;28;20373;-70
2023/11/30 08:22:42;;;;;;;108.37;16.73;;;;;;;;;;5041219;28;20028;-70
2023/11/30 08:25:08;;;;;;;87.47;15.87;;;;;;;;;;5034318;28;20426;-72
2023/11/30 08:27:33;;;;;;;99.23;17.17;;;;;;;;;;5036393;28;20024;-71
2023/11/30 08:29:59;;;;;;;106.67;16.30;;;;;;;;;;5033981;28;20078;-71
2023/11/30 08:32:24;;;;;;;104.07;17.20;;;;;;;;;;5036817;28;20017;-70
2023/11/30 08:34:50;;;;;;;102.33;17.77;;;;;;;;;;5040527;28;20025;-70
2023/11/30 08:37:16;;;;;;;89.23;14.80;;;;;;;;;;5034687;28;20474;-71
2023/11/30 08:39:42;;;;;;;103.20;16.63;;;;;;;;;;5036485;28;20032;-70
2023/11/30 08:42:07;;;;;;;108.60;18.13;;;;;;;;;;5037286;28;20705;-69
2023/11/30 08:44:35;;;;;;;100.07;17.27;;;;;;;;;;5035514;28;20037;-73
2023/11/30 08:47:00;;;;;;;99.13;17.13;;;;;;;;;;5035318;28;20640;-68
2023/11/30 08:49:25;;;;;;;80.57;14.20;;;;;;;;;;5035338;28;20048;-73
2023/11/30 08:51:51;;;;;;;103.47;16.20;;;;;;;;;;5037950;28;20081;-72
2023/11/30 08:54:17;;;;;;;109.43;16.73;;;;;;;;;;5035029;28;20139;-63
2023/11/30 08:56:42;;;;;;;83.97;15.27;;;;;;;;;;5038300;28;20105;-64
2023/11/30 08:59:08;;;;;;;106.63;17.20;;;;;;;;;;5037852;28;20021;-65
2023/11/30 09:01:33;;;;;;;120.70;19.13;;;;;;;;;;5038102;28;20465;-65
2023/11/30 09:04:05;;;;;;;99.03;18.07;;;;;;;;;;5039383;28;20084;-65
2023/11/30 09:06:33;;;;;;;100.97;17.23;;;;;;;;;;5036362;28;20485;-66
2023/11/30 09:08:58;;;;;;;92.87;16.30;;;;;;;;;;5037686;28;20082;-65
2023/11/30 09:11:24;;;;;;;92.77;16.13;;;;;;;;;;5033320;28;20117;-65
2023/11/30 09:13:49;;;;;;;91.03;16.20;;;;;;;;;;5037668;28;20033;-66
2023/11/30 09:16:14;;;;;;;95.63;15.47;;;;;;;;;;5038553;28;20113;-65
2023/11/30 09:18:39;;;;;;;93.07;16.80;;;;;;;;;;5035123;28;20025;-66
2023/11/30 09:21:05;;;;;;;91.50;15.37;;;;;;;;;;5035214;28;20060;-64
2023/11/30 09:23:31;;;;;;;93.57;17.50;;;;;;;;;;5037756;28;20048;-64
2023/11/30 09:25:56;;;;;;;86.57;15.17;;;;;;;;;;5040897;28;20025;-65
2023/11/30 09:28:21;;;;;;;78.63;15.10;;;;;;;;;;5035195;28;20210;-65
2023/11/30 09:30:47;;;;;;;92.50;15.80;;;;;;;;;;5034429;28;20553;-66
2023/11/30 09:33:13;;;;;;;100.10;16.47;;;;;;;;;;5039794;28;20033;-66
2023/11/30 09:35:39;;;;;;;96.07;16.30;;;;;;;;;;5036190;28;20017;-66
2023/11/30 09:38:04;;;;;;;84.50;15.70;;;;;;;;;;5031732;28;20112;-66
2023/11/30 09:40:29;;;;;;;90.80;14.47;;;;;;;;;;5030661;28;20161;-65
2023/11/30 09:42:56;;;;;;;77.20;14.23;;;;;;;;;;5035493;28;20139;-64
2023/11/30 09:45:22;;;;;;;94.90;16.30;;;;;;;;;;5036656;28;20017;-64
2023/11/30 09:47:48;;;;;;;94.47;15.87;;;;;;;;;;5033967;28;20033;-65
2023/11/30 09:50:13;;;;;;;94.60;18.00;;;;;;;;;;5032883;28;20512;-65
2023/11/30 09:52:38;;;;;;;83.07;15.10;;;;;;;;;;5037044;28;20186;-65
2023/11/30 09:55:04;;;;;;;97.10;15.07;;;;;;;;;;5035016;28;20122;-65
2023/11/30 09:57:29;;;;;;;107.67;16.60;;;;;;;;;;5039684;28;20021;-65
2023/11/30 09:59:55;;;;;;;86.40;14.50;;;;;;;;;;5034527;28;20192;-65
2023/11/30 10:02:22;;;;;;;87.00;14.80;;;;;;;;;;5035598;28;20120;-65
2023/11/30 10:04:47;;;;;;;98.00;15.93;;;;;;;;;;5037579;28;20021;-66
2023/11/30 10:07:13;;;;;;;115.10;17.00;;;;;;;;;;5037824;28;20029;-65
2023/11/30 10:09:38;;;;;;;98.60;15.40;;;;;;;;;;5033316;28;20033;-65
2023/11/30 10:12:04;;;;;;;135.87;24.27;;;;;;;;;;5034241;28;20579;-65
2023/11/30 10:14:29;;;;;;;86.77;13.83;;;;;;;;;;5032698;28;20017;-66
2023/11/30 10:16:54;;;;;;;78.03;15.47;;;;;;;;;;5037663;28;20028;-65
2023/11/30 10:19:19;;;;;;;101.47;16.00;;;;;;;;;;5033665;28;20025;-65
2023/11/30 10:21:45;;;;;;;75.30;14.03;;;;;;;;;;5031443;28;20061;-65
2023/11/30 10:24:10;;;;;;;90.70;15.67;;;;;;;;;;5035336;28;20229;-65
2023/11/30 10:26:36;;;;;;;77.90;14.80;;;;;;;;;;5032718;28;20025;-64
2023/11/30 10:29:02;;;;;;;81.70;15.27;;;;;;;;;;5036379;28;20024;-64
2023/11/30 10:31:27;;;;;;;85.67;15.17;;;;;;;;;;5037965;28;20472;-64
2023/11/30 10:34:03;;;;;;;76.87;15.23;;;;;;;;;;5036655;28;20013;-66
2023/11/30 10:36:29;;;;;;;74.30;14.63;;;;;;;;;;5033759;28;20019;-65
2023/11/30 10:39:01;;;;;;;64.53;13.50;;;;;;;;;;5035686;28;20021;-65
2023/11/30 10:41:39;;;;;;;85.03;15.63;;;;;;;;;;5036352;28;20033;-65
2023/11/30 10:44:06;;;;;;;71.93;15.10;;;;;;;;;;5031999;28;20056;-64
2023/11/30 10:46:33;;;;;;;77.37;14.10;;;;;;;;;;5034422;28;20390;-64
2023/11/30 10:48:58;;;;;;;70.93;14.87;;;;;;;;;;5032680;28;20442;-66
2023/11/30 10:51:24;;;;;;;79.87;14.43;;;;;;;;;;5034220;28;20124;-65
2023/11/30 10:53:55;;;;;;;64.57;13.70;;;;;;;;;;5036537;28;20100;-65
2023/11/30 10:56:22;;;;;;;73.40;15.32;;;;;;;;;;5035113;28;20025;-65
2023/11/30 10:58:47;;;;;;;76.20;13.70;;;;;;;;;;5032843;28;20067;-65
2023/11/30 11:01:13;;;;;;;76.33;14.57;;;;;;;;;;5034852;28;20655;-64
2023/11/30 11:03:48;;;;;;;77.87;15.10;;;;;;;;;;5036643;28;20068;-64
2023/11/30 11:06:16;;;;;;;60.60;13.30;;;;;;;;;;5029326;28;20410;-65
2023/11/30 11:09:01;;;;;;;67.50;13.70;;;;;;;;;;5030393;28;20033;-66
2023/11/30 11:11:29;;;;;;;64.47;13.53;;;;;;;;;;5032163;28;20133;-64
2023/11/30 11:13:55;;;;;;;66.40;14.70;;;;;;;;;;5034813;28;20024;-71
2023/11/30 11:16:31;;;;;;;50.90;13.03;;;;;;;;;;5033744;28;20108;-71
2023/11/30 11:19:00;;;;;;;54.80;13.03;;;;;;;;;;5037363;28;20497;-70
2023/11/30 11:21:26;;;;;;;65.87;14.17;;;;;;;;;;5038308;28;20732;-72
2023/11/30 11:23:51;;;;;;;70.10;14.77;;;;;;;;;;5039910;28;20053;-71
2023/11/30 11:26:16;;;;;;;64.80;13.57;;;;;;;;;;5039329;28;20059;-71
2023/11/30 11:28:41;;;;;;;60.67;12.57;;;;;;;;;;5039607;28;20032;-70
2023/11/30 11:31:07;;;;;;;68.97;14.80;;;;;;;;;;5042101;28;20035;-70
2023/11/30 11:33:33;;;;;;;63.77;14.57;;;;;;;;;;5037705;28;20466;-73
2023/11/30 11:36:00;;;;;;;64.53;13.47;;;;;;;;;;5040458;28;20025;-72
2023/11/30 11:38:25;;;;;;;60.53;13.43;;;;;;;;;;5039486;28;20063;-71
2023/11/30 11:40:53;;;;;;;66.60;14.23;;;;;;;;;;5037734;28;20393;-72
2023/11/30 11:43:18;;;;;;;64.13;12.63;;;;;;;;;;5036641;28;20049;-71
2023/11/30 11:45:43;;;;;;;62.47;14.10;;;;;;;;;;5037948;28;20062;-72
2023/11/30 11:48:10;;;;;;;61.57;13.60;;;;;;;;;;5040940;28;20386;-71
2023/11/30 11:50:35;;;;;;;60.03;14.30;;;;;;;;;;5039623;28;20691;-72
2023/11/30 11:53:01;;;;;;;58.90;14.27;;;;;;;;;;5036612;28;20146;-71
2023/11/30 11:55:27;;;;;;;70.83;14.10;;;;;;;;;;5035203;28;20049;-71
2023/11/30 11:57:53;;;;;;;62.40;13.83;;;;;;;;;;5036227;28;20036;-71
2023/11/30 12:00:20;;;;;;;60.77;14.00;;;;;;;;;;5041570;28;20670;-72
2023/11/30 12:02:46;;;;;;;44.20;12.67;;;;;;;;;;5037245;28;20033;-72
2023/11/30 12:05:14;;;;;;;60.37;14.13;;;;;;;;;;5036954;28;20592;-71
2023/11/30 12:07:48;;;;;;;64.43;14.13;;;;;;;;;;5033153;28;20470;-72
2023/11/30 12:10:24;;;;;;;61.77;14.90;;;;;;;;;;5040746;28;20021;-71
2023/11/30 12:12:50;;;;;;;52.73;12.93;;;;;;;;;;5036493;28;20021;-72
2023/11/30 12:15:16;;;;;;;62.13;14.07;;;;;;;;;;5043571;28;20025;-71
2023/11/30 12:17:41;;;;;;;53.13;12.87;;;;;;;;;;5037060;28;20056;-72
2023/11/30 12:20:06;;;;;;;59.37;13.10;;;;;;;;;;5033411;28;20025;-71
2023/11/30 12:22:31;;;;;;;66.57;14.87;;;;;;;;;;5038871;28;20175;-71
2023/11/30 12:24:57;;;;;;;60.47;15.27;;;;;;;;;;5038730;28;20040;-73
2023/11/30 12:27:22;;;;;;;61.00;14.40;;;;;;;;;;5035112;28;20052;-71
2023/11/30 12:29:47;;;;;;;60.97;14.80;;;;;;;;;;5037455;28;20420;-72
2023/11/30 12:32:13;;;;;;;59.53;15.10;;;;;;;;;;5038379;28;20021;-71
2023/11/30 12:34:38;;;;;;;54.60;14.27;;;;;;;;;;5037439;28;20030;-70
2023/11/30 12:37:03;;;;;;;63.27;15.40;;;;;;;;;;5033733;28;20625;-70
2023/11/30 12:39:28;;;;;;;52.73;14.43;;;;;;;;;;5037419;28;20031;-70
2023/11/30 12:41:54;;;;;;;59.27;14.93;;;;;;;;;;5036873;28;20039;-70
2023/11/30 12:44:19;;;;;;;53.63;14.07;;;;;;;;;;5040381;28;20040;-70
2023/11/30 12:46:45;;;;;;;53.57;14.57;;;;;;;;;;5035692;28;20869;-69
2023/11/30 12:49:10;;;;;;;60.20;14.93;;;;;;;;;;5039764;28;20548;-71
2023/11/30 12:51:35;;;;;;;52.30;14.53;;;;;;;;;;5036423;28;20278;-71
2023/11/30 12:54:02;;;;;;;54.07;15.47;;;;;;;;;;5032895;28;20017;-72
2023/11/30 12:56:27;;;;;;;53.60;14.10;;;;;;;;;;5037208;28;20026;-73
2023/11/30 12:58:52;;;;;;;55.97;14.73;;;;;;;;;;5040516;28;20025;-72
2023/11/30 13:01:18;;;;;;;54.10;14.73;;;;;;;;;;5036921;28;20493;-71
2023/11/30 13:03:43;;;;;;;50.77;14.03;;;;;;;;;;5037290;28;20078;-74
2023/11/30 13:06:08;;;;;;;47.90;13.10;;;;;;;;;;5034676;28;20028;-73
2023/11/30 13:08:35;;;;;;;56.37;14.47;;;;;;;;;;5039920;28;20719;-71
2023/11/30 13:11:00;;;;;;;45.37;13.07;;;;;;;;;;5040687;28;20040;-72
2023/11/30 13:13:26;;;;;;;44.33;13.83;;;;;;;;;;5032192;28;20297;-73
2023/11/30 13:15:51;;;;;;;52.23;14.73;;;;;;;;;;5032936;28;20025;-73
2023/11/30 13:18:16;;;;;;;44.07;14.03;;;;;;;;;;5035275;28;20502;-74
2023/11/30 13:20:42;;;;;;;57.80;15.37;;;;;;;;;;5033056;28;20033;-72
2023/11/30 13:23:07;;;;;;;56.93;15.07;;;;;;;;;;5033489;28;20091;-72
2023/11/30 13:25:33;;;;;;;54.37;15.03;;;;;;;;;;5033534;28;20114;-69
2023/11/30 13:27:58;;;;;;;66.27;15.93;;;;;;;;;;5035705;28;20341;-71
2023/11/30 13:30:24;;;;;;;58.23;16.23;;;;;;;;;;5037831;28;20692;-69
2023/11/30 13:32:49;;;;;;;56.17;15.63;;;;;;;;;;5033996;28;20036;-73
2023/11/30 13:35:14;;;;;;;46.77;14.07;;;;;;;;;;5035120;28;20029;-66
2023/11/30 13:37:40;;;;;;;59.07;15.87;;;;;;;;;;5034773;28;20025;-66
2023/11/30 13:40:07;;;;;;;54.60;15.20;;;;;;;;;;5035740;28;20025;-65
2023/11/30 13:42:32;;;;;;;49.80;15.00;;;;;;;;;;5037526;28;20120;-65
2023/11/30 13:44:57;;;;;;;51.17;14.47;;;;;;;;;;5034601;28;20533;-65
2023/11/30 13:47:23;;;;;;;56.63;16.57;;;;;;;;;;5032263;28;20420;-65
2023/11/30 13:49:48;;;;;;;66.70;18.13;;;;;;;;;;5036917;28;20269;-65
2023/11/30 13:52:13;;;;;;;44.67;13.10;;;;;;;;;;5035758;28;20048;-64
2023/11/30 13:54:38;;;;;;;58.67;16.77;;;;;;;;;;5036008;28;20029;-65
2023/11/30 13:57:06;;;;;;;62.17;17.70;;;;;;;;;;5035381;28;20489;-65
2023/11/30 13:59:32;;;;;;;53.43;15.27;;;;;;;;;;5036765;28;20028;-64
2023/11/30 14:01:57;;;;;;;59.73;17.33;;;;;;;;;;5034613;28;20095;-65